createdAt,value
2018-09-04T00:00:23.570Z,16.80
2018-09-04T00:02:53.728Z,16.70
2018-09-04T00:05:24.235Z,16.70
2018-09-04T00:07:54.016Z,16.70
2018-09-04T00:10:23.824Z,16.60
2018-09-04T00:12:54.233Z,16.60
2018-09-04T00:15:24.026Z,16.60
2018-09-04T00:17:53.904Z,16.60
2018-09-04T00:20:24.139Z,16.60
2018-09-04T00:22:54.195Z,16.60
2018-09-04T00:25:24.032Z,16.50
2018-09-04T00:27:54.397Z,16.50
2018-09-04T00:30:24.595Z,16.50
2018-09-04T00:32:54.613Z,16.50
2018-09-04T00:35:25.174Z,16.40
2018-09-04T00:37:54.956Z,16.40
2018-09-04T00:40:24.722Z,16.40
2018-09-04T00:42:54.860Z,16.40
2018-09-04T00:45:24.747Z,16.40
2018-09-04T00:47:54.520Z,16.40
2018-09-04T00:50:25.096Z,16.40
2018-09-04T00:52:54.869Z,16.40
2018-09-04T00:55:24.787Z,16.40
2018-09-04T00:57:54.968Z,16.40
2018-09-04T01:00:28.242Z,16.40
2018-09-04T01:02:58.908Z,16.40
2018-09-04T01:05:29.061Z,16.40
2018-09-04T01:07:59.828Z,16.40
2018-09-04T01:10:29.628Z,16.40
2018-09-04T01:12:59.371Z,16.40
2018-09-04T01:15:29.664Z,16.40
2018-09-04T01:18:00.247Z,16.40
2018-09-04T01:20:30.674Z,16.40
2018-09-04T01:23:01.276Z,16.40
2018-09-04T01:25:31.133Z,16.40
2018-09-04T01:28:00.895Z,16.40
2018-09-04T01:30:31.119Z,16.40
2018-09-04T01:33:00.881Z,16.40
2018-09-04T01:35:30.720Z,16.30
2018-09-04T01:38:00.879Z,16.30
2018-09-04T01:40:30.628Z,16.30
2018-09-04T01:43:00.416Z,16.30
2018-09-04T01:45:30.652Z,16.30
2018-09-04T01:48:00.435Z,16.30
2018-09-04T01:50:30.314Z,16.30
2018-09-04T01:53:00.076Z,16.20
2018-09-04T01:55:30.755Z,16.30
2018-09-04T01:58:00.856Z,16.20
2018-09-04T02:00:30.676Z,16.20
2018-09-04T02:03:00.441Z,16.20
2018-09-04T02:05:30.639Z,16.20
2018-09-04T02:08:00.921Z,16.10
2018-09-04T02:10:30.791Z,16.10
2018-09-04T02:13:01.143Z,16.10
2018-09-04T02:15:31.080Z,16.10
2018-09-04T02:18:00.973Z,16.00
2018-09-04T02:20:31.100Z,16.00
2018-09-04T02:23:01.189Z,16.00
2018-09-04T02:25:31.179Z,16.00
2018-09-04T02:28:02.020Z,16.00
2018-09-04T02:30:31.825Z,15.90
2018-09-04T02:33:01.627Z,15.90
2018-09-04T02:35:31.615Z,15.80
2018-09-04T02:38:01.391Z,15.80
2018-09-04T02:40:32.358Z,15.80
2018-09-04T02:43:02.281Z,15.80
2018-09-04T02:45:32.283Z,15.70
2018-09-04T02:48:02.348Z,15.80
2018-09-04T02:50:32.748Z,15.80
2018-09-04T02:53:02.543Z,15.70
2018-09-04T02:55:32.470Z,15.70
2018-09-04T02:58:02.491Z,15.70
2018-09-04T03:00:32.576Z,15.80
2018-09-04T03:03:02.981Z,15.80
2018-09-04T03:05:33.136Z,15.80
2018-09-04T03:08:02.945Z,15.80
2018-09-04T03:10:33.203Z,15.90
2018-09-04T03:13:03.083Z,15.90
2018-09-04T03:15:33.277Z,15.90
2018-09-04T03:18:03.143Z,15.90
2018-09-04T03:20:33.337Z,16.00
2018-09-04T03:23:03.509Z,16.00
2018-09-04T03:25:34.100Z,16.10
2018-09-04T03:28:03.921Z,16.10
2018-09-04T03:30:33.656Z,16.10
2018-09-04T03:33:03.751Z,16.20
2018-09-04T03:35:33.491Z,16.20
2018-09-04T03:38:03.614Z,16.30
2018-09-04T03:40:33.411Z,16.30
2018-09-04T03:43:03.671Z,16.30
2018-09-04T03:45:33.832Z,16.20
2018-09-04T03:48:06.758Z,16.40
2018-09-04T03:50:36.736Z,16.50
2018-09-04T03:53:07.113Z,16.50
2018-09-04T03:55:36.911Z,16.50
2018-09-04T03:58:06.863Z,16.50
2018-09-04T04:00:37.100Z,16.50
2018-09-04T04:03:06.952Z,16.60
2018-09-04T04:05:36.970Z,16.60
2018-09-04T04:08:07.302Z,16.60
2018-09-04T04:10:37.207Z,16.60
2018-09-04T04:13:07.122Z,16.70
2018-09-04T04:15:37.476Z,16.70
2018-09-04T04:18:07.759Z,16.70
2018-09-04T04:20:37.756Z,16.80
2018-09-04T04:23:07.851Z,16.80
2018-09-04T04:25:37.767Z,16.80
2018-09-04T04:28:07.706Z,16.90
2018-09-04T04:30:37.836Z,16.90
2018-09-04T04:33:07.739Z,16.90
2018-09-04T04:35:37.823Z,16.90
2018-09-04T04:38:08.153Z,16.90
2018-09-04T04:40:38.267Z,17.00
2018-09-04T04:43:08.035Z,17.00
2018-09-04T04:45:38.244Z,17.00
2018-09-04T04:48:08.037Z,17.00
2018-09-04T04:50:37.844Z,17.00
2018-09-04T04:53:08.376Z,17.10
2018-09-04T04:55:39.188Z,17.10
2018-09-04T04:58:09.398Z,17.10
2018-09-04T05:00:39.145Z,17.10
2018-09-04T05:03:09.770Z,17.20
2018-09-04T05:05:39.620Z,17.20
2018-09-04T05:08:09.539Z,17.20
2018-09-04T05:10:39.797Z,17.30
2018-09-04T05:13:10.048Z,17.30
2018-09-04T05:15:39.969Z,17.30
2018-09-04T05:18:10.213Z,17.30
2018-09-04T05:20:40.164Z,17.30
2018-09-04T05:23:10.161Z,17.40
2018-09-04T05:25:41.549Z,17.40
2018-09-04T05:28:11.364Z,17.40
2018-09-04T05:30:41.168Z,17.40
2018-09-04T05:33:16.520Z,17.40
2018-09-04T05:35:48.494Z,17.40
2018-09-04T05:38:18.354Z,17.40
2018-09-04T05:40:48.224Z,17.50
2018-09-04T05:43:23.435Z,17.50
2018-09-04T05:45:53.663Z,17.50
2018-09-04T05:48:23.568Z,17.50
2018-09-04T05:50:54.355Z,17.50
2018-09-04T05:53:26.806Z,17.60
2018-09-04T05:55:56.997Z,17.70
2018-09-04T05:58:26.795Z,17.80
2018-09-04T06:01:00.631Z,17.80
2018-09-04T06:03:30.409Z,17.80
2018-09-04T06:06:00.151Z,17.90
2018-09-04T06:08:30.384Z,18.00
2018-09-04T06:11:00.152Z,18.00
2018-09-04T06:13:30.011Z,17.90
2018-09-04T06:16:00.795Z,18.00
2018-09-04T06:18:30.561Z,18.00
2018-09-04T06:21:00.348Z,18.00
2018-09-04T06:23:30.864Z,18.00
2018-09-04T06:26:00.680Z,18.10
2018-09-04T06:28:30.487Z,18.00
2018-09-04T06:31:00.764Z,17.90
2018-09-04T06:33:30.636Z,18.00
2018-09-04T06:36:00.400Z,18.00
2018-09-04T06:38:30.574Z,18.00
2018-09-04T06:41:03.297Z,17.90
2018-09-04T06:43:34.137Z,17.90
2018-09-04T06:46:05.086Z,17.90
2018-09-04T06:48:35.540Z,17.90
2018-09-04T06:51:05.422Z,17.80
2018-09-04T06:53:35.563Z,17.80
2018-09-04T06:56:05.559Z,17.70
2018-09-04T06:58:36.376Z,17.60
2018-09-04T07:01:06.689Z,17.60
2018-09-04T07:03:36.567Z,17.70
2018-09-04T07:06:06.985Z,17.70
2018-09-04T07:08:37.119Z,17.70
2018-09-04T07:11:09.131Z,17.80
2018-09-04T07:13:38.928Z,17.80
2018-09-04T07:16:09.442Z,18.00
2018-09-04T07:18:39.337Z,18.10
2018-09-04T07:21:10.804Z,18.20
2018-09-04T07:23:40.627Z,18.40
2018-09-04T07:26:10.480Z,18.40
2018-09-04T07:28:40.767Z,18.50
2018-09-04T07:31:10.684Z,18.60
2018-09-04T07:33:40.579Z,18.70
2018-09-04T07:36:10.356Z,18.80
2018-09-04T07:38:40.116Z,18.90
2018-09-04T07:41:10.644Z,19.10
2018-09-04T07:43:42.225Z,19.40
2018-09-04T07:46:13.263Z,19.50
2018-09-04T07:48:43.980Z,19.50
2018-09-04T07:51:13.754Z,19.60
2018-09-04T07:53:43.555Z,19.70
2018-09-04T07:56:13.575Z,19.90
2018-09-04T07:58:45.048Z,20.10
2018-09-04T08:01:15.283Z,20.20
2018-09-04T08:03:45.459Z,20.10
2018-09-04T08:06:15.519Z,20.20
2018-09-04T08:08:45.280Z,20.20
2018-09-04T08:11:15.532Z,20.30
2018-09-04T08:13:46.508Z,20.30
2018-09-04T08:16:16.389Z,20.30
2018-09-04T08:18:46.207Z,20.50
2018-09-04T08:21:16.020Z,20.30
2018-09-04T08:23:46.268Z,20.40
2018-09-04T08:26:16.265Z,20.60
2018-09-04T08:28:46.059Z,20.90
2018-09-04T08:31:16.683Z,21.20
2018-09-04T08:33:46.533Z,21.50
2018-09-04T08:36:16.312Z,21.60
2018-09-04T08:38:50.331Z,21.70
2018-09-04T08:41:20.480Z,21.60
2018-09-04T08:43:50.903Z,21.40
2018-09-04T08:46:21.105Z,21.50
2018-09-04T08:48:50.872Z,21.50
2018-09-04T08:51:21.004Z,21.60
2018-09-04T08:56:13.064Z,21.70
2018-09-04T08:58:42.930Z,21.80
2018-09-04T09:01:13.427Z,21.90
2018-09-04T09:03:43.584Z,22.00
2018-09-04T09:06:13.443Z,21.70
2018-09-04T09:08:43.545Z,21.50
2018-09-04T09:11:13.393Z,21.40
2018-09-04T09:13:43.157Z,21.40
2018-09-04T09:16:12.948Z,21.40
2018-09-04T09:18:42.728Z,21.20
2018-09-04T09:21:12.576Z,21.20
2018-09-04T09:23:42.349Z,21.20
2018-09-04T09:26:12.612Z,21.40
2018-09-04T09:28:42.801Z,21.40
2018-09-04T09:31:13.129Z,21.50
2018-09-04T09:33:43.057Z,21.60
2018-09-04T09:36:13.375Z,21.70
2018-09-04T09:38:44.088Z,21.80
2018-09-04T09:41:14.048Z,21.70
2018-09-04T09:43:43.856Z,21.60
2018-09-04T09:46:13.732Z,21.70
2018-09-04T09:48:44.176Z,21.70
2018-09-04T09:51:14.185Z,21.80
2018-09-04T09:53:44.047Z,22.00
2018-09-04T09:56:15.170Z,22.10
2018-09-04T09:58:45.307Z,22.20
2018-09-04T10:01:25.016Z,22.00
2018-09-04T10:04:04.080Z,22.00
2018-09-04T10:06:33.904Z,22.20
2018-09-04T10:09:04.468Z,22.30
2018-09-04T10:11:34.545Z,22.50
2018-09-04T10:14:04.543Z,22.50
2018-09-04T10:16:34.391Z,22.50
2018-09-04T10:19:04.239Z,22.30
2018-09-04T10:21:34.469Z,22.30
2018-09-04T10:24:04.286Z,22.40
2018-09-04T10:26:34.219Z,22.50
2018-09-04T10:29:04.559Z,22.70
2018-09-04T10:31:34.368Z,22.90
2018-09-04T10:34:04.108Z,23.10
2018-09-04T10:36:33.881Z,22.80
2018-09-04T10:39:08.968Z,22.90
2018-09-04T10:41:38.800Z,23.00
2018-09-04T10:44:09.997Z,23.10
2018-09-04T10:46:39.767Z,23.40
2018-09-04T10:49:09.568Z,23.50
2018-09-04T10:51:39.860Z,23.60
2018-09-04T10:54:09.768Z,23.70
2018-09-04T10:56:39.690Z,23.90
2018-09-04T10:59:09.836Z,24.20
2018-09-04T11:01:41.642Z,24.40
2018-09-04T11:04:11.432Z,24.50
2018-09-04T11:06:41.668Z,24.80
2018-09-04T11:09:12.200Z,24.80
2018-09-04T11:11:42.978Z,24.80
2018-09-04T11:14:13.228Z,24.80
2018-09-04T11:16:43.021Z,25.00
2018-09-04T11:19:12.856Z,25.00
2018-09-04T11:21:42.612Z,25.20
2018-09-04T11:24:12.544Z,24.80
2018-09-04T11:26:42.939Z,24.90
2018-09-04T11:29:17.231Z,25.10
2018-09-04T11:31:47.548Z,25.10
2018-09-04T11:34:17.717Z,25.30
2018-09-04T11:36:47.623Z,25.30
2018-09-04T11:39:17.572Z,25.20
2018-09-04T11:41:47.897Z,25.10
2018-09-04T11:44:17.732Z,25.20
2018-09-04T11:46:47.748Z,25.30
2018-09-04T11:49:26.504Z,25.60
2018-09-04T11:51:57.048Z,25.50
2018-09-04T11:54:27.096Z,25.20
2018-09-04T11:56:57.088Z,25.40
2018-09-04T11:59:33.751Z,25.70
2018-09-04T12:02:04.238Z,25.90
2018-09-04T12:04:34.726Z,26.30
2018-09-04T12:07:05.024Z,26.30
2018-09-04T12:09:35.764Z,26.50
2018-09-04T12:12:05.899Z,26.80
2018-09-04T12:14:38.537Z,27.10
2018-09-04T12:17:09.430Z,27.50
2018-09-04T12:20:59.033Z,28.00
2018-09-04T12:23:33.471Z,28.50
2018-09-04T12:26:05.495Z,29.30
2018-09-04T12:28:37.190Z,29.40
2018-09-04T12:31:08.689Z,29.70
2018-09-04T12:33:40.188Z,29.80
2018-09-04T12:36:10.039Z,30.30
2018-09-04T12:38:42.520Z,30.50
2018-09-04T12:41:14.986Z,30.40
2018-09-04T12:43:45.060Z,30.00
2018-09-04T12:46:15.144Z,29.60
2018-09-04T12:48:50.262Z,29.90
2018-09-04T12:51:20.980Z,30.50
2018-09-04T12:53:51.404Z,31.30
2018-09-04T12:56:21.812Z,31.50
2018-09-04T12:58:51.968Z,31.90
2018-09-04T13:01:23.109Z,31.00
2018-09-04T13:03:53.436Z,31.00
2018-09-04T13:06:23.573Z,30.80
2018-09-04T13:08:55.947Z,31.20
2018-09-04T13:11:26.323Z,31.20
2018-09-04T13:13:56.857Z,32.00
2018-09-04T13:16:26.716Z,32.20
2018-09-04T13:18:56.639Z,31.50
2018-09-04T13:21:26.726Z,32.50
2018-09-04T13:23:56.475Z,33.10
2018-09-04T13:26:26.996Z,34.10
2018-09-04T13:28:58.659Z,34.00
2018-09-04T13:31:29.604Z,33.80
2018-09-04T13:34:00.077Z,34.40
2018-09-04T13:36:30.701Z,33.70
2018-09-04T13:39:01.718Z,33.70
2018-09-04T13:41:34.042Z,33.90
2018-09-04T13:44:04.601Z,34.40
2018-09-04T13:46:34.946Z,34.20
2018-09-04T13:49:05.714Z,33.60
2018-09-04T13:51:36.312Z,33.70
2018-09-04T13:54:07.045Z,34.20
2018-09-04T13:56:39.801Z,34.50
2018-09-04T13:59:11.214Z,33.50
2018-09-04T14:01:41.304Z,33.70
2018-09-04T14:04:11.492Z,34.20
2018-09-04T14:06:41.413Z,34.50
2018-09-04T14:09:11.248Z,34.50
2018-09-04T14:11:41.546Z,35.00
2018-09-04T14:14:12.253Z,33.70
2018-09-04T14:16:43.581Z,34.00
2018-09-04T14:19:13.185Z,33.50
2018-09-04T14:21:43.250Z,33.10
2018-09-04T14:24:13.069Z,32.70
2018-09-04T14:26:43.111Z,32.40
2018-09-04T14:29:53.158Z,31.40
2018-09-04T14:31:43.187Z,31.70
2018-09-04T14:34:13.292Z,32.10
2018-09-04T14:36:43.184Z,32.10
2018-09-04T14:39:13.050Z,32.70
2018-09-04T14:41:43.102Z,32.20
2018-09-04T14:44:13.003Z,32.60
2018-09-04T14:46:43.105Z,32.10
2018-09-04T14:49:13.232Z,32.10
2018-09-04T14:51:43.248Z,31.40
2018-09-04T14:54:13.164Z,31.40
2018-09-04T14:56:43.504Z,32.20
2018-09-04T14:59:13.439Z,32.40
2018-09-04T15:01:43.244Z,32.50
2018-09-04T15:04:14.028Z,32.80
2018-09-04T15:06:43.810Z,32.60
2018-09-04T15:09:13.564Z,33.10
2018-09-04T15:11:44.821Z,32.80
2018-09-04T15:14:14.595Z,32.60
2018-09-04T15:16:44.633Z,31.80
2018-09-04T15:19:14.960Z,32.00
2018-09-04T15:21:44.873Z,31.60
2018-09-04T15:24:14.762Z,31.40
2018-09-04T15:26:44.622Z,31.00
2018-09-04T15:29:14.459Z,30.60
2018-09-04T15:31:44.408Z,30.00
2018-09-04T15:34:14.244Z,30.10
2018-09-04T15:36:44.071Z,30.60
2018-09-04T15:39:14.096Z,30.70
2018-09-04T15:41:43.915Z,31.50
2018-09-04T15:44:13.737Z,32.00
2018-09-04T15:46:43.582Z,31.40
2018-09-04T15:49:18.278Z,31.60
2018-09-04T15:51:48.179Z,31.60
2018-09-04T15:54:17.937Z,31.70
2018-09-04T15:56:47.850Z,31.40
2018-09-04T15:59:17.684Z,30.70
2018-09-04T16:01:47.517Z,30.60
2018-09-04T16:04:17.656Z,31.10
2018-09-04T16:06:48.388Z,31.00
2018-09-04T16:09:18.561Z,31.40
2018-09-04T16:11:48.410Z,30.20
2018-09-04T16:14:18.270Z,29.40
2018-09-04T16:16:48.649Z,29.50
2018-09-04T16:19:18.558Z,29.50
2018-09-04T16:21:48.421Z,30.40
2018-09-04T16:24:18.746Z,30.40
2018-09-04T16:26:48.545Z,30.10
2018-09-04T16:29:18.497Z,29.10
2018-09-04T16:31:48.672Z,28.70
2018-09-04T16:34:18.610Z,29.10
2018-09-04T16:36:48.403Z,28.40
2018-09-04T16:39:18.752Z,28.80
2018-09-04T16:41:48.664Z,29.20
2018-09-04T16:44:18.587Z,29.40
2018-09-04T16:46:48.711Z,28.80
2018-09-04T16:49:22.512Z,28.60
2018-09-04T16:51:52.577Z,27.80
2018-09-04T16:54:24.748Z,27.70
2018-09-04T16:56:54.724Z,27.40
2018-09-04T16:59:24.515Z,27.70
2018-09-04T17:01:54.264Z,27.10
2018-09-04T17:04:24.340Z,26.70
2018-09-04T17:06:54.102Z,26.80
2018-09-04T17:09:23.857Z,26.90
2018-09-04T17:11:53.802Z,26.60
2018-09-04T17:14:23.555Z,26.70
2018-09-04T17:16:53.663Z,27.00
2018-09-04T17:19:23.439Z,26.80
2018-09-04T17:21:53.296Z,26.60
2018-09-04T17:24:23.072Z,26.90
2018-09-04T17:26:52.834Z,26.40
2018-09-04T17:29:22.596Z,25.90
2018-09-04T17:31:52.518Z,25.80
2018-09-04T17:34:22.748Z,25.70
2018-09-04T17:36:52.539Z,25.40
2018-09-04T17:39:22.320Z,25.20
2018-09-04T17:41:52.204Z,24.80
2018-09-04T17:44:22.413Z,24.40
2018-09-04T17:46:53.029Z,24.00
2018-09-04T17:49:22.795Z,23.80
2018-09-04T17:51:52.707Z,23.40
2018-09-04T17:54:22.465Z,23.10
2018-09-04T17:56:52.200Z,22.70
2018-09-04T17:59:22.020Z,22.20
2018-09-04T18:01:51.789Z,21.80
2018-09-04T18:04:21.550Z,21.40
2018-09-04T18:06:51.965Z,21.00
2018-09-04T18:09:21.754Z,20.80
2018-09-04T18:11:51.508Z,20.60
2018-09-04T18:14:21.664Z,20.50
2018-09-04T18:16:51.439Z,20.30
2018-09-04T18:19:21.591Z,20.10
2018-09-04T18:21:51.971Z,20.00
2018-09-04T18:24:21.893Z,19.90
2018-09-04T18:26:51.808Z,19.80
2018-09-04T18:29:22.005Z,19.70
2018-09-04T18:31:51.776Z,19.60
2018-09-04T18:34:21.548Z,19.50
2018-09-04T18:36:51.452Z,19.60
2018-09-04T18:39:21.316Z,19.30
2018-09-04T18:41:51.097Z,19.20
2018-09-04T18:44:20.936Z,19.20
2018-09-04T18:46:51.068Z,19.10
2018-09-04T18:49:20.873Z,19.00
2018-09-04T18:51:50.810Z,18.90
2018-09-04T18:54:20.575Z,18.80
2018-09-04T18:56:50.363Z,18.80
2018-09-04T18:59:20.561Z,18.70
2018-09-04T19:01:50.419Z,18.60
2018-09-04T19:04:20.266Z,18.60
2018-09-04T19:06:50.281Z,18.50
2018-09-04T19:09:20.207Z,18.50
2018-09-04T19:11:50.042Z,18.40
2018-09-04T19:14:20.050Z,18.30
2018-09-04T19:16:50.339Z,18.30
2018-09-04T19:19:20.209Z,18.30
2018-09-04T19:21:50.016Z,18.20
2018-09-04T19:24:19.932Z,18.10
2018-09-04T19:26:49.727Z,18.00
2018-09-04T19:29:20.246Z,18.00
2018-09-04T19:31:52.326Z,17.90
2018-09-04T19:34:22.181Z,17.90
2018-09-04T19:36:51.940Z,17.80
2018-09-04T19:39:22.292Z,17.80
2018-09-04T19:41:54.968Z,17.70
2018-09-04T19:44:25.285Z,17.60
2018-09-04T19:46:55.482Z,17.60
2018-09-04T19:49:28.304Z,17.50
2018-09-04T19:51:58.588Z,17.40
2018-09-04T19:54:34.767Z,17.40
2018-09-04T19:57:04.973Z,17.30
2018-09-04T19:59:35.313Z,17.20
2018-09-04T20:02:05.803Z,17.10
2018-09-04T20:04:39.282Z,17.10
2018-09-04T20:07:09.116Z,17.00
2018-09-04T20:09:39.088Z,16.90
2018-09-04T20:12:09.235Z,16.90
2018-09-04T20:14:39.387Z,16.80
2018-09-04T20:17:10.037Z,16.70
2018-09-04T20:19:40.483Z,16.60
2018-09-04T20:22:11.601Z,16.60
2018-09-04T20:24:42.871Z,16.60
2018-09-04T20:27:13.298Z,16.60
2018-09-04T20:29:43.888Z,16.60
2018-09-04T20:32:15.160Z,16.60
2018-09-04T20:34:45.354Z,16.50
2018-09-04T20:37:15.244Z,16.50
2018-09-04T20:39:45.171Z,16.40
2018-09-04T20:42:15.035Z,16.40
2018-09-04T20:44:44.840Z,16.30
2018-09-04T20:47:14.960Z,16.30
2018-09-04T20:49:44.714Z,16.30
2018-09-04T20:52:14.448Z,16.20
2018-09-04T20:54:44.221Z,16.30
2018-09-04T20:57:28.518Z,16.30
2018-09-04T21:00:10.618Z,16.20
2018-09-04T21:02:51.188Z,16.10
2018-09-04T21:05:31.871Z,16.00
2018-09-04T21:08:13.336Z,16.00
2018-09-04T21:10:44.119Z,15.90
2018-09-04T21:13:14.393Z,15.90
2018-09-04T21:15:44.206Z,15.90
2018-09-04T21:18:14.916Z,15.90
2018-09-04T21:20:44.733Z,15.90
2018-09-04T21:23:14.592Z,15.90
2018-09-04T21:25:44.931Z,15.80
2018-09-04T21:28:17.192Z,15.80
2018-09-04T21:30:47.439Z,15.70
2018-09-04T21:33:17.656Z,15.70
2018-09-04T21:35:47.384Z,15.60
2018-09-04T21:38:17.416Z,15.60
2018-09-04T21:40:47.548Z,15.50
2018-09-04T21:43:17.296Z,15.50
2018-09-04T21:45:47.031Z,15.50
2018-09-04T21:48:17.644Z,15.60
2018-09-04T21:50:47.834Z,15.50
2018-09-04T21:53:17.884Z,15.50
2018-09-04T21:55:47.703Z,15.50
2018-09-04T21:58:17.932Z,15.50
2018-09-04T22:00:47.693Z,15.40
2018-09-04T22:03:17.458Z,15.40
2018-09-04T22:05:48.864Z,15.30
2018-09-04T22:08:18.662Z,15.40
2018-09-04T22:10:48.463Z,15.30
2018-09-04T22:13:18.306Z,15.30
2018-09-04T22:15:48.208Z,15.30
2018-09-04T22:18:18.140Z,15.30
2018-09-04T22:20:47.907Z,15.20
2018-09-04T22:23:17.837Z,15.20
2018-09-04T22:25:48.136Z,15.10
2018-09-04T22:28:17.944Z,15.10
2018-09-04T22:30:47.688Z,15.00
2018-09-04T22:33:17.820Z,15.00
2018-09-04T22:35:47.563Z,15.00
2018-09-04T22:38:17.303Z,14.90
2018-09-04T22:40:47.066Z,14.90
2018-09-04T22:43:16.820Z,14.90
2018-09-04T22:45:47.260Z,15.00
2018-09-04T22:48:17.724Z,15.00
2018-09-04T22:50:52.300Z,14.90
2018-09-04T22:53:22.133Z,14.90
2018-09-04T22:55:52.652Z,14.90
2018-09-04T22:58:22.504Z,14.90
2018-09-04T23:00:52.724Z,14.90
2018-09-04T23:03:22.865Z,14.80
2018-09-04T23:05:55.151Z,14.80
2018-09-04T23:08:26.165Z,14.70
2018-09-04T23:10:56.371Z,14.70
2018-09-04T23:13:26.159Z,14.70
2018-09-04T23:15:55.903Z,14.60
2018-09-04T23:18:25.652Z,14.70
2018-09-04T23:20:55.870Z,14.60
2018-09-04T23:23:26.005Z,14.60
2018-09-04T23:25:55.928Z,14.60
2018-09-04T23:28:26.392Z,14.60
2018-09-04T23:30:56.168Z,14.50
2018-09-04T23:33:26.012Z,14.50
2018-09-04T23:35:56.609Z,14.50
2018-09-04T23:38:26.779Z,14.50
2018-09-04T23:40:56.584Z,14.50
2018-09-04T23:43:26.368Z,14.40
2018-09-04T23:45:56.121Z,14.30
2018-09-04T23:48:25.862Z,14.20
2018-09-04T23:50:57.029Z,14.20
2018-09-04T23:53:27.329Z,14.20
2018-09-04T23:55:57.145Z,14.20
2018-09-04T23:58:27.488Z,14.20
